Olivia Sylvie — FMIF — position and weather

sailwx.info

Track history (hours):
 
Tides and Currents Weather Stations Pressure Air Temp Water Temp Dewpoint Dewpoint Depression Visibility Wind Speed Wind Dir Waves Ship Positions

Olivia Sylvie

Last reported at 2014-Sep-16 07:23 UTC. Time now 2014-Sep-16 09:30 UTC.
Position N 43°13' E 005°06'.

Length 23 m.

Type: Fishing. MMSI: 228236800.

Date/timePositionNaut miles runAvg speedWind from/ knotsBaromVisibWave heightAir tempDewpointWater temp
2014-Sep-16 07:23N 43°13' E 005°06'8 2.1
2014-Sep-16 03:26N 43°16' E 004°56'6 6.7
2014-Sep-16 02:33N 43°22' E 004°58'3 0.3
2014-Sep-15 16:33N 43°24' E 004°60'0 0.0
2014-Sep-15 15:34N 43°24' E 004°60'0 0.0
2014-Sep-15 14:33N 43°24' E 004°60'5 4.7
2014-Sep-15 13:33N 43°21' E 004°55'5 5.2
2014-Sep-15 12:33N 43°16' E 004°52'4 3.9
2014-Sep-15 11:33N 43°13' E 004°49'5 1.8
2014-Sep-15 08:32N 43°15' E 004°56'2 2.2
2014-Sep-15 07:33N 43°17' E 004°54'3 3.3
2014-Sep-15 06:33N 43°15' E 004°50'4 1.5
2014-Sep-15 04:08N 43°18' E 004°47'3 4.1
2014-Sep-15 03:27N 43°18' E 004°51'4 3.5
2014-Sep-15 02:24N 43°20' E 004°55'6 6.6
2014-Sep-15 01:34N 43°24' E 004°60'0 0.0
2014-Sep-14 08:33N 43°24' E 004°60'0 0.0
2014-Sep-13 10:05N 43°24' E 004°60'0 0.0
2014-Sep-13 09:33N 43°24' E 004°60'0 0.0
2014-Sep-13 08:33N 43°24' E 004°60'0 0.0
2014-Sep-12 12:11N 43°24' E 004°60'0 0.0
2014-Sep-12 11:33N 43°24' E 004°60'0 0.0
2014-Sep-12 10:34N 43°24' E 004°60'0 0.4
2014-Sep-12 09:34N 43°24' E 004°59'2 1.9
2014-Sep-12 08:34N 43°24' E 004°56'6 5.8
2014-Sep-12 07:33N 43°18' E 004°56'3 2.9
2014-Sep-12 06:33N 43°18' E 004°52'4 1.0
2014-Sep-12 02:14N 43°21' E 004°57'4 5.7
2014-Sep-12 01:33N 43°24' E 004°60'0 0.0
2014-Sep-11 15:33N 43°24' E 004°60'0 0.0
2014-Sep-11 14:33N 43°24' E 004°60'6 6.2
2014-Sep-11 13:33N 43°18' E 005°02'0 0.5
2014-Sep-11 12:33N 43°18' E 005°02'4 3.6
2014-Sep-11 11:33N 43°18' E 004°57'4 3.8
2014-Sep-11 10:33N 43°17' E 004°53'3 2.3
2014-Sep-11 09:25N 43°16' E 004°49'3 3.6
2014-Sep-11 08:31N 43°16' E 004°54'3 2.6
2014-Sep-11 07:26N 43°16' E 004°57'3 3.3
2014-Sep-11 06:32N 43°17' E 004°53'4 4.0
2014-Sep-11 05:27N 43°15' E 004°48'2 2.0
2014-Sep-11 04:26N 43°17' E 004°47'4 4.0
2014-Sep-11 03:33N 43°17' E 004°52'4 4.0
2014-Sep-11 02:34N 43°18' E 004°57'6 6.1
2014-Sep-11 01:33N 43°24' E 004°60'0 0.0
2014-Sep-10 15:22N 43°24' E 004°60'0 0.0
2014-Sep-10 14:33N 43°24' E 004°60'4 3.6
2014-Sep-10 13:33N 43°21' E 004°60'5 4.9
2014-Sep-10 12:33N 43°16' E 004°57'4 3.8
2014-Sep-10 11:33N 43°13' E 004°55'4 4.0
2014-Sep-10 10:30N 43°12' E 004°49'4 4.4
2014-Sep-10 09:32N 43°08' E 004°48'6 3.1
2014-Sep-10 07:26N 43°03' E 004°42'3 3.0
2014-Sep-10 06:33N 43°06' E 004°42'12 3.8
2014-Sep-10 03:20N 43°15' E 004°53'2 3.1
2014-Sep-10 02:33N 43°16' E 004°56'8 8.4
2014-Sep-10 01:33N 43°24' E 004°60'0 0.0
2014-Sep-09 14:33N 43°24' E 004°60'2 2.0
2014-Sep-09 13:33N 43°22' E 004°58'6 6.5
2014-Sep-09 12:33N 43°16' E 004°59'4 3.8
2014-Sep-09 11:33N 43°15' E 004°53'4 4.0
2014-Sep-09 10:34N 43°13' E 004°49'5 4.0
2014-Sep-09 09:21N 43°09' E 004°45'4 4.0
2014-Sep-09 08:23N 43°05' E 004°44'3 3.7
2014-Sep-09 07:33N 43°03' E 004°43'3 2.8
2014-Sep-09 06:20N 43°06' E 004°44'11 3.7
2014-Sep-09 03:29N 43°15' E 004°50'4 4.0
2014-Sep-09 02:31N 43°18' E 004°55'8 7.8
2014-Sep-09 01:33N 43°24' E 004°60'0 0.0
2014-Sep-08 15:27N 43°24' E 004°60'0 0.0
2014-Sep-08 14:33N 43°24' E 004°60'0 0.0
2014-Sep-08 13:34N 43°24' E 004°60'6 6.1
2014-Sep-08 12:33N 43°18' E 005°01'4 3.7
2014-Sep-08 11:33N 43°16' E 004°57'4 3.9
2014-Sep-08 10:31N 43°15' E 004°52'4 3.8
2014-Sep-08 09:30N 43°12' E 004°48'9 3.8
2014-Sep-08 07:06N 43°06' E 004°39'1 2.1
2014-Sep-08 06:28N 43°07' E 004°40'11 3.9
2014-Sep-08 03:33N 43°16' E 004°50'4 4.0
2014-Sep-08 02:33N 43°17' E 004°55'8 7.7
2014-Sep-08 01:33N 43°24' E 004°60'  
Track history (hours):
 
Tides and Currents Weather Stations Pressure Air Temp Water Temp Dewpoint Dewpoint Depression Visibility Wind Speed Wind Dir Waves Ship Positions

Olivia Sylvie

Last reported at 2014-Sep-16 07:23 UTC. Time now 2014-Sep-16 09:30 UTC.
Position N 43°13' E 005°06'.

Length 23 m.

Type: Fishing. MMSI: 228236800.

Date/timePositionNaut miles runAvg speedWind from/ knotsBaromVisibWave heightAir tempDewpointWater temp
2014-Sep-16 07:23N 43°13' E 005°06'8 2.1
2014-Sep-16 03:26N 43°16' E 004°56'6 6.7
2014-Sep-16 02:33N 43°22' E 004°58'3 0.3
2014-Sep-15 16:33N 43°24' E 004°60'0 0.0
2014-Sep-15 15:34N 43°24' E 004°60'0 0.0
2014-Sep-15 14:33N 43°24' E 004°60'5 4.7
2014-Sep-15 13:33N 43°21' E 004°55'5 5.2
2014-Sep-15 12:33N 43°16' E 004°52'4 3.9
2014-Sep-15 11:33N 43°13' E 004°49'5 1.8
2014-Sep-15 08:32N 43°15' E 004°56'2 2.2
2014-Sep-15 07:33N 43°17' E 004°54'3 3.3
2014-Sep-15 06:33N 43°15' E 004°50'4 1.5
2014-Sep-15 04:08N 43°18' E 004°47'3 4.1
2014-Sep-15 03:27N 43°18' E 004°51'4 3.5
2014-Sep-15 02:24N 43°20' E 004°55'6 6.6
2014-Sep-15 01:34N 43°24' E 004°60'0 0.0
2014-Sep-14 08:33N 43°24' E 004°60'0 0.0
2014-Sep-13 10:05N 43°24' E 004°60'0 0.0
2014-Sep-13 09:33N 43°24' E 004°60'0 0.0
2014-Sep-13 08:33N 43°24' E 004°60'0 0.0
2014-Sep-12 12:11N 43°24' E 004°60'0 0.0
2014-Sep-12 11:33N 43°24' E 004°60'0 0.0
2014-Sep-12 10:34N 43°24' E 004°60'0 0.4
2014-Sep-12 09:34N 43°24' E 004°59'2 1.9
2014-Sep-12 08:34N 43°24' E 004°56'6 5.8
2014-Sep-12 07:33N 43°18' E 004°56'3 2.9
2014-Sep-12 06:33N 43°18' E 004°52'4 1.0
2014-Sep-12 02:14N 43°21' E 004°57'4 5.7
2014-Sep-12 01:33N 43°24' E 004°60'0 0.0
2014-Sep-11 15:33N 43°24' E 004°60'0 0.0
2014-Sep-11 14:33N 43°24' E 004°60'6 6.2
2014-Sep-11 13:33N 43°18' E 005°02'0 0.5
2014-Sep-11 12:33N 43°18' E 005°02'4 3.6
2014-Sep-11 11:33N 43°18' E 004°57'4 3.8
2014-Sep-11 10:33N 43°17' E 004°53'3 2.3
2014-Sep-11 09:25N 43°16' E 004°49'3 3.6
2014-Sep-11 08:31N 43°16' E 004°54'3 2.6
2014-Sep-11 07:26N 43°16' E 004°57'3 3.3
2014-Sep-11 06:32N 43°17' E 004°53'4 4.0
2014-Sep-11 05:27N 43°15' E 004°48'2 2.0
2014-Sep-11 04:26N 43°17' E 004°47'4 4.0
2014-Sep-11 03:33N 43°17' E 004°52'4 4.0
2014-Sep-11 02:34N 43°18' E 004°57'6 6.1
2014-Sep-11 01:33N 43°24' E 004°60'0 0.0
2014-Sep-10 15:22N 43°24' E 004°60'0 0.0
2014-Sep-10 14:33N 43°24' E 004°60'4 3.6
2014-Sep-10 13:33N 43°21' E 004°60'5 4.9
2014-Sep-10 12:33N 43°16' E 004°57'4 3.8
2014-Sep-10 11:33N 43°13' E 004°55'4 4.0
2014-Sep-10 10:30N 43°12' E 004°49'4 4.4
2014-Sep-10 09:32N 43°08' E 004°48'6 3.1
2014-Sep-10 07:26N 43°03' E 004°42'3 3.0
2014-Sep-10 06:33N 43°06' E 004°42'12 3.8
2014-Sep-10 03:20N 43°15' E 004°53'2 3.1
2014-Sep-10 02:33N 43°16' E 004°56'8 8.4
2014-Sep-10 01:33N 43°24' E 004°60'0 0.0
2014-Sep-09 14:33N 43°24' E 004°60'2 2.0
2014-Sep-09 13:33N 43°22' E 004°58'6 6.5
2014-Sep-09 12:33N 43°16' E 004°59'4 3.8
2014-Sep-09 11:33N 43°15' E 004°53'4 4.0
2014-Sep-09 10:34N 43°13' E 004°49'5 4.0
2014-Sep-09 09:21N 43°09' E 004°45'4 4.0
2014-Sep-09 08:23N 43°05' E 004°44'3 3.7
2014-Sep-09 07:33N 43°03' E 004°43'3 2.8
2014-Sep-09 06:20N 43°06' E 004°44'11 3.7
2014-Sep-09 03:29N 43°15' E 004°50'4 4.0
2014-Sep-09 02:31N 43°18' E 004°55'8 7.8
2014-Sep-09 01:33N 43°24' E 004°60'0 0.0
2014-Sep-08 15:27N 43°24' E 004°60'0 0.0
2014-Sep-08 14:33N 43°24' E 004°60'0 0.0
2014-Sep-08 13:34N 43°24' E 004°60'6 6.1
2014-Sep-08 12:33N 43°18' E 005°01'4 3.7
2014-Sep-08 11:33N 43°16' E 004°57'4 3.9
2014-Sep-08 10:31N 43°15' E 004°52'4 3.8
2014-Sep-08 09:30N 43°12' E 004°48'9 3.8
2014-Sep-08 07:06N 43°06' E 004°39'1 2.1
2014-Sep-08 06:28N 43°07' E 004°40'11 3.9
2014-Sep-08 03:33N 43°16' E 004°50'4 4.0
2014-Sep-08 02:33N 43°17' E 004°55'8 7.7
2014-Sep-08 01:33N 43°24' E 004°60'  

Dump ship's entire track history